createdAt,value
2023-05-11T00:02:26.187Z,99105.31
2023-05-11T00:04:54.408Z,99105.44
2023-05-11T00:07:21.461Z,99106.34
2023-05-11T00:09:48.525Z,99106.47
2023-05-11T00:12:15.541Z,99107.41
2023-05-11T00:14:42.742Z,99100.50
2023-05-11T00:17:10.897Z,99110.94
2023-05-11T00:19:38.258Z,99106.63
2023-05-11T00:22:05.240Z,99105.72
2023-05-11T00:24:32.374Z,99107.47
2023-05-11T00:26:59.319Z,99109.25
2023-05-11T00:29:26.466Z,99100.56
2023-05-11T00:31:53.429Z,99105.81
2023-05-11T00:34:20.655Z,99105.84
2023-05-11T00:36:47.814Z,99095.53
2023-05-11T00:39:15.094Z,99106.09
2023-05-11T00:41:41.922Z,99101.00
2023-05-11T00:44:09.248Z,99099.31
2023-05-11T00:46:36.555Z,99092.47
2023-05-11T00:49:03.827Z,99083.06
2023-05-11T00:51:32.881Z,99090.13
2023-05-11T00:54:01.133Z,99087.66
2023-05-11T00:56:28.364Z,99093.00
2023-05-11T00:58:55.609Z,99084.41
2023-05-11T01:01:22.712Z,99087.94
2023-05-11T01:03:50.201Z,99085.41
2023-05-11T01:06:32.414Z,99093.34
2023-05-11T01:09:06.662Z,99093.41
2023-05-11T01:11:48.341Z,99086.50
2023-05-11T01:14:23.361Z,99097.00
2023-05-11T01:16:56.008Z,99094.41
2023-05-11T01:19:32.330Z,99094.44
2023-05-11T01:22:00.105Z,99097.91
2023-05-11T01:24:42.419Z,99094.50
2023-05-11T01:27:18.225Z,99089.34
2023-05-11T01:30:04.832Z,99088.50
2023-05-11T01:32:35.846Z,99092.88
2023-05-11T01:35:12.350Z,99088.56
2023-05-11T01:37:45.851Z,99090.38
2023-05-11T01:40:17.287Z,99087.84
2023-05-11T01:43:01.415Z,99082.69
2023-05-11T01:45:31.767Z,99090.50
2023-05-11T01:48:03.057Z,99086.16
2023-05-11T01:50:32.781Z,99079.25
2023-05-11T01:53:02.961Z,99084.50
2023-05-11T01:55:32.312Z,99088.81
2023-05-11T01:58:00.927Z,99086.31
2023-05-11T02:00:28.567Z,99088.94
2023-05-11T02:02:57.809Z,99090.72
2023-05-11T02:05:25.295Z,99093.38
2023-05-11T02:07:54.460Z,99087.38
2023-05-11T02:10:25.797Z,99094.31
2023-05-11T02:12:54.539Z,99088.28
2023-05-11T02:15:22.823Z,99095.22
2023-05-11T02:17:51.374Z,99095.22
2023-05-11T02:20:20.318Z,99104.84
2023-05-11T02:22:49.122Z,99097.06
2023-05-11T02:25:17.246Z,99092.81
2023-05-11T02:27:44.298Z,99091.13
2023-05-11T02:30:12.953Z,99098.09
2023-05-11T02:32:47.718Z,99101.69
2023-05-11T02:35:18.707Z,99102.56
2023-05-11T02:37:48.357Z,99103.47
2023-05-11T02:43:13.255Z,99098.25
2023-05-11T02:45:43.116Z,99101.78
2023-05-11T02:48:14.095Z,99098.34
2023-05-11T02:50:43.006Z,99100.97
2023-05-11T02:53:16.500Z,99107.94
2023-05-11T02:55:44.252Z,99104.47
2023-05-11T02:58:11.654Z,99103.63
2023-05-11T03:00:39.772Z,99104.50
2023-05-11T03:03:06.966Z,99106.25
2023-05-11T03:05:34.243Z,99104.50
2023-05-11T03:08:01.741Z,99112.31
2023-05-11T03:10:29.670Z,99111.41
2023-05-11T03:12:56.836Z,99110.53
2023-05-11T03:15:24.496Z,99113.13
2023-05-11T03:17:52.391Z,99117.44
2023-05-11T03:20:22.349Z,99116.50
2023-05-11T03:22:49.871Z,99116.50
2023-05-11T03:25:17.743Z,99116.47
2023-05-11T03:27:46.835Z,99116.44
2023-05-11T03:30:15.932Z,99122.47
2023-05-11T03:32:43.102Z,99125.00
2023-05-11T03:35:10.533Z,99119.75
2023-05-11T03:37:39.036Z,99126.59
2023-05-11T03:40:08.220Z,99113.47
2023-05-11T03:42:37.616Z,99115.16
2023-05-11T03:45:07.886Z,99121.09
2023-05-11T03:47:36.124Z,99125.41
2023-05-11T03:50:04.425Z,99124.50
2023-05-11T03:52:32.512Z,99127.03
2023-05-11T03:54:59.785Z,99124.34
2023-05-11T03:57:27.836Z,99132.91
2023-05-11T03:59:54.983Z,99125.09
2023-05-11T04:02:24.586Z,99130.19
2023-05-11T04:04:54.818Z,99137.03
2023-05-11T04:07:21.967Z,99133.41
2023-05-11T04:09:49.083Z,99133.22
2023-05-11T04:12:15.951Z,99137.31
2023-05-11T04:14:43.263Z,99134.50
2023-05-11T04:17:10.284Z,99136.84
2023-05-11T04:19:37.374Z,99136.53
2023-05-11T04:22:04.209Z,99131.66
2023-05-11T04:24:31.344Z,99140.50
2023-05-11T04:26:58.229Z,99137.81
2023-05-11T04:29:25.666Z,99133.16
2023-05-11T04:31:52.532Z,99134.47
2023-05-11T04:34:19.734Z,99129.94
2023-05-11T04:36:50.924Z,99138.69
2023-05-11T04:39:18.158Z,99136.97
2023-05-11T04:41:45.391Z,99136.19
2023-05-11T04:44:12.727Z,99135.56
2023-05-11T04:46:39.639Z,99136.53
2023-05-11T04:49:07.092Z,99137.75
2023-05-11T04:51:33.984Z,99132.13
2023-05-11T04:54:01.134Z,99139.78
2023-05-11T04:56:27.996Z,99137.75
2023-05-11T04:58:55.148Z,99140.81
2023-05-11T05:01:22.099Z,99142.09
2023-05-11T05:03:49.906Z,99145.28
2023-05-11T05:06:16.884Z,99149.13
2023-05-11T05:08:44.014Z,99137.97
2023-05-11T05:11:11.174Z,99141.00
2023-05-11T05:13:38.340Z,99148.69
2023-05-11T05:16:05.480Z,99140.25
2023-05-11T05:18:32.909Z,99149.28
2023-05-11T05:20:59.899Z,99161.06
2023-05-11T05:23:27.029Z,99159.19
2023-05-11T05:25:54.079Z,99158.81
2023-05-11T05:28:21.225Z,99153.28
2023-05-11T05:30:48.135Z,99160.66
2023-05-11T05:33:15.334Z,99153.19
2023-05-11T05:35:43.960Z,99156.44
2023-05-11T05:38:11.304Z,99150.19
2023-05-11T05:40:39.585Z,99152.22
2023-05-11T05:43:06.944Z,99149.94
2023-05-11T05:45:33.767Z,99158.63
2023-05-11T05:48:01.104Z,99154.16
2023-05-11T05:50:28.386Z,99159.19
2023-05-11T05:52:55.821Z,99155.31
2023-05-11T05:55:22.709Z,99149.34
2023-05-11T05:57:50.235Z,99150.69
2023-05-11T06:00:17.753Z,99148.31
2023-05-11T06:02:45.139Z,99155.88
2023-05-11T06:05:12.063Z,99145.78
2023-05-11T06:07:39.259Z,99148.75
2023-05-11T06:10:06.641Z,99156.34
2023-05-11T06:12:33.936Z,99154.75
2023-05-11T06:15:01.010Z,99157.66
2023-05-11T06:17:28.680Z,99162.16
2023-05-11T06:19:55.812Z,99164.38
2023-05-11T06:22:23.007Z,99166.03
2023-05-11T06:24:50.128Z,99155.09
2023-05-11T06:27:18.383Z,99164.13
2023-05-11T06:29:45.750Z,99160.09
2023-05-11T06:32:12.896Z,99161.31
2023-05-11T06:34:39.838Z,99162.81
2023-05-11T06:37:07.488Z,99163.78
2023-05-11T06:39:37.806Z,99159.81
2023-05-11T06:42:06.807Z,99161.19
2023-05-11T06:44:34.375Z,99169.38
2023-05-11T06:47:01.593Z,99164.53
2023-05-11T06:49:28.851Z,99161.22
2023-05-11T06:51:55.989Z,99162.81
2023-05-11T06:54:22.945Z,99157.41
2023-05-11T06:56:50.134Z,99168.75
2023-05-11T06:59:17.246Z,99159.59
2023-05-11T07:01:44.775Z,99165.66
2023-05-11T07:04:11.767Z,99165.44
2023-05-11T07:06:38.983Z,99177.03
2023-05-11T07:09:05.925Z,99166.72
2023-05-11T07:11:33.055Z,99166.47
2023-05-11T07:13:59.890Z,99167.69
2023-05-11T07:16:27.241Z,99168.94
2023-05-11T07:18:54.229Z,99176.31
2023-05-11T07:21:24.537Z,99170.22
2023-05-11T07:23:51.442Z,99170.09
2023-05-11T07:26:18.601Z,99166.88
2023-05-11T07:28:45.506Z,99168.06
2023-05-11T07:33:39.675Z,99172.06
2023-05-11T07:36:07.566Z,99172.38
2023-05-11T07:38:34.514Z,99172.81
2023-05-11T07:41:01.788Z,99174.38
2023-05-11T07:43:28.698Z,99167.97
2023-05-11T07:45:55.953Z,99176.97
2023-05-11T07:48:22.985Z,99179.44
2023-05-11T07:50:50.172Z,99162.81
2023-05-11T07:53:17.203Z,99173.38
2023-05-11T07:55:44.461Z,99170.91
2023-05-11T07:58:11.340Z,99162.00
2023-05-11T08:00:38.550Z,99168.94
2023-05-11T08:03:06.536Z,99172.47
2023-05-11T08:05:37.484Z,99178.28
2023-05-11T08:08:05.239Z,99171.91
2023-05-11T08:10:32.481Z,99173.22
2023-05-11T08:12:59.494Z,99177.84
2023-05-11T08:15:27.042Z,99172.38
2023-05-11T08:17:54.039Z,99175.66
2023-05-11T08:20:21.303Z,99177.84
2023-05-11T08:22:48.208Z,99156.91
2023-05-11T08:25:15.478Z,99161.97
2023-05-11T08:27:42.424Z,99170.09
2023-05-11T08:30:11.784Z,99176.13
2023-05-11T08:32:54.590Z,99168.81
2023-05-11T08:35:24.800Z,99163.41
2023-05-11T08:37:51.749Z,99157.28
2023-05-11T08:40:21.755Z,99147.59
2023-05-11T08:42:52.740Z,99164.69
2023-05-11T08:45:21.300Z,99148.31
2023-05-11T08:47:49.130Z,99152.66
2023-05-11T08:50:16.541Z,99148.41
2023-05-11T08:52:43.473Z,99151.41
2023-05-11T08:55:11.169Z,99143.50
2023-05-11T08:57:40.441Z,99156.44
2023-05-11T09:00:08.638Z,99145.59
2023-05-11T09:02:35.998Z,99152.81
2023-05-11T09:05:04.474Z,99152.59
2023-05-11T09:07:33.490Z,99151.00
2023-05-11T09:10:01.518Z,99155.03
2023-05-11T09:12:28.627Z,99140.97
2023-05-11T09:15:01.864Z,99148.16
2023-05-11T09:17:29.260Z,99147.22
2023-05-11T09:20:01.595Z,99142.50
2023-05-11T09:22:30.568Z,99145.44
2023-05-11T09:25:01.893Z,99139.78
2023-05-11T09:27:28.809Z,99135.97
2023-05-11T09:29:56.017Z,99133.47
2023-05-11T09:32:22.922Z,99139.66
2023-05-11T09:34:50.380Z,99132.69
2023-05-11T09:37:19.012Z,99125.03
2023-05-11T09:40:13.996Z,99121.81
2023-05-11T09:42:33.027Z,99129.66
2023-05-11T09:45:00.192Z,99116.69
2023-05-11T09:47:27.687Z,99123.28
2023-05-11T09:49:54.913Z,99114.31
2023-05-11T09:52:21.796Z,99106.72
2023-05-11T09:54:51.935Z,99125.66
2023-05-11T09:57:29.931Z,99114.38
2023-05-11T09:59:59.060Z,99117.03
2023-05-11T10:02:28.236Z,99110.94
2023-05-11T10:05:00.477Z,99094.41
2023-05-11T10:07:30.231Z,99094.34
2023-05-11T10:09:59.606Z,99094.13
2023-05-11T10:12:27.481Z,99093.22
2023-05-11T10:15:02.899Z,99086.34
2023-05-11T10:17:33.232Z,99096.38
2023-05-11T10:20:01.954Z,99072.31
2023-05-11T10:22:30.260Z,99088.38
2023-05-11T10:24:58.776Z,99077.31
2023-05-11T10:27:27.145Z,99086.91
2023-05-11T10:29:54.589Z,99081.66
2023-05-11T10:32:22.694Z,99071.78
2023-05-11T10:34:52.876Z,99074.75
2023-05-11T10:37:21.444Z,99093.38
2023-05-11T10:39:50.646Z,99076.22
2023-05-11T10:42:37.440Z,99076.97
2023-05-11T10:45:25.532Z,99086.78
2023-05-11T10:48:17.056Z,99076.97
2023-05-11T10:51:18.068Z,99083.75
2023-05-11T10:54:09.123Z,99076.53
2023-05-11T10:57:07.197Z,99082.16
2023-05-11T10:59:53.926Z,99068.28
2023-05-11T11:02:21.821Z,99059.47
2023-05-11T11:04:51.888Z,99060.25
2023-05-11T11:07:20.181Z,99062.22
2023-05-11T11:10:07.308Z,99049.63
2023-05-11T11:12:35.255Z,99063.41
2023-05-11T11:15:05.490Z,99050.88
2023-05-11T11:17:35.196Z,99044.78
2023-05-11T11:20:07.678Z,99039.53
2023-05-11T11:22:34.979Z,99038.06
2023-05-11T11:25:05.245Z,99049.69
2023-05-11T11:27:41.974Z,99046.31
2023-05-11T11:30:18.864Z,99040.31
2023-05-11T11:32:48.398Z,99052.75
2023-05-11T11:35:40.142Z,99037.19
2023-05-11T11:38:14.653Z,99038.09
2023-05-11T11:40:51.197Z,99036.25
2023-05-11T11:43:27.044Z,99036.69
2023-05-11T11:46:01.135Z,99034.28
2023-05-11T11:48:42.476Z,99027.88
2023-05-11T11:51:11.233Z,99030.72
2023-05-11T11:53:38.589Z,99048.28
2023-05-11T11:56:08.008Z,99024.06
2023-05-11T11:58:41.419Z,99033.72
2023-05-11T12:01:10.194Z,99020.09
2023-05-11T12:03:37.833Z,99028.81
2023-05-11T12:06:08.121Z,99025.59
2023-05-11T12:08:36.785Z,99033.28
2023-05-11T12:11:04.730Z,99025.28
2023-05-11T12:13:32.818Z,99031.38
2023-05-11T12:16:15.808Z,99023.47
2023-05-11T12:18:52.826Z,99031.72
2023-05-11T12:21:23.856Z,99027.06
2023-05-11T12:23:59.200Z,99025.91
2023-05-11T12:26:27.391Z,99034.09
2023-05-11T12:29:09.247Z,99011.44
2023-05-11T12:31:40.954Z,99018.25
2023-05-11T12:34:15.530Z,99015.84
2023-05-11T12:36:43.327Z,99012.75
2023-05-11T12:39:17.856Z,99009.19
2023-05-11T12:41:45.272Z,98997.03
2023-05-11T12:44:14.577Z,99004.59
2023-05-11T12:46:41.895Z,99031.84
2023-05-11T12:49:10.193Z,99018.19
2023-05-11T12:51:42.805Z,99008.41
2023-05-11T12:54:10.233Z,99000.38
2023-05-11T12:56:48.139Z,98994.56
2023-05-11T12:59:30.486Z,98992.19
2023-05-11T13:02:20.622Z,98977.41
2023-05-11T13:04:48.881Z,99000.50
2023-05-11T13:07:25.022Z,99007.53
2023-05-11T13:10:00.227Z,99008.97
2023-05-11T13:12:30.247Z,99008.53
2023-05-11T13:15:13.351Z,99002.16
2023-05-11T13:17:42.366Z,98997.63
2023-05-11T13:20:27.675Z,99004.56
2023-05-11T13:23:15.520Z,98994.31
2023-05-11T13:25:45.435Z,98989.50
2023-05-11T13:28:14.517Z,98967.47
2023-05-11T13:30:42.302Z,98989.44
2023-05-11T13:33:09.616Z,98969.75
2023-05-11T13:35:41.385Z,98986.66
2023-05-11T13:38:09.049Z,98978.00
2023-05-11T13:40:36.783Z,98977.84
2023-05-11T13:43:03.861Z,98975.44
2023-05-11T13:45:31.123Z,98977.84
2023-05-11T13:47:58.102Z,98963.38
2023-05-11T13:50:26.552Z,98982.09
2023-05-11T13:52:54.110Z,98975.84
2023-05-11T13:55:22.011Z,98981.03
2023-05-11T13:57:49.329Z,98974.97
2023-05-11T14:00:16.944Z,98967.38
2023-05-11T14:02:44.978Z,98963.13
2023-05-11T14:05:12.246Z,98971.28
2023-05-11T14:07:47.867Z,98964.50
2023-05-11T14:10:19.741Z,98962.41
2023-05-11T14:12:46.834Z,98968.13
2023-05-11T14:15:14.144Z,98956.44
2023-05-11T14:17:43.153Z,98969.03
2023-05-11T14:20:12.927Z,98978.22
2023-05-11T14:22:41.684Z,98954.63
2023-05-11T14:25:09.075Z,98957.19
2023-05-11T14:27:36.357Z,98956.31
2023-05-11T14:30:03.753Z,98955.56
2023-05-11T14:32:30.742Z,98950.03
2023-05-11T14:34:57.988Z,98949.06
2023-05-11T14:37:24.909Z,98940.06
2023-05-11T14:39:52.098Z,98946.13
2023-05-11T14:42:19.179Z,98949.66
2023-05-11T14:44:46.453Z,98949.41
2023-05-11T14:47:13.360Z,98957.28
2023-05-11T14:49:40.524Z,98961.06
2023-05-11T14:52:07.352Z,98936.03
2023-05-11T14:54:35.167Z,98952.31
2023-05-11T14:57:02.041Z,98952.53
2023-05-11T14:59:29.239Z,98952.81
2023-05-11T15:01:56.117Z,98974.03
2023-05-11T15:04:23.356Z,98949.75
2023-05-11T15:06:50.467Z,98947.56
2023-05-11T15:09:17.644Z,98946.91
2023-05-11T15:11:44.523Z,98943.03
2023-05-11T15:14:11.907Z,98963.09
2023-05-11T15:16:38.889Z,98947.56
2023-05-11T15:19:06.508Z,98954.22
2023-05-11T15:21:33.555Z,98946.59
2023-05-11T15:24:00.945Z,98949.97
2023-05-11T15:26:27.848Z,98956.44
2023-05-11T15:28:55.066Z,98948.78
2023-05-11T15:31:22.603Z,98953.41
2023-05-11T15:33:50.017Z,98958.75
2023-05-11T15:36:16.987Z,98953.28
2023-05-11T15:38:44.156Z,98953.41
2023-05-11T15:41:11.021Z,98949.78
2023-05-11T15:43:38.148Z,98952.31
2023-05-11T15:46:05.806Z,98946.97
2023-05-11T15:48:33.360Z,98948.19
2023-05-11T15:51:01.337Z,98950.25
2023-05-11T15:53:28.884Z,98953.66
2023-05-11T15:55:56.900Z,98960.19
2023-05-11T15:58:24.300Z,98951.44
2023-05-11T16:00:51.411Z,98956.78
2023-05-11T16:03:20.021Z,98952.53
2023-05-11T16:05:47.441Z,98962.50
2023-05-11T16:08:14.730Z,98961.75
2023-05-11T16:10:41.665Z,98947.78
2023-05-11T16:13:09.815Z,98955.56
2023-05-11T16:15:36.854Z,98953.34
2023-05-11T16:18:05.293Z,98951.16
2023-05-11T16:20:32.496Z,98955.75
2023-05-11T16:22:59.817Z,98958.56
2023-05-11T16:25:26.908Z,98936.59
2023-05-11T16:27:54.075Z,98962.91
2023-05-11T16:30:24.157Z,98959.34
2023-05-11T16:32:52.014Z,98959.34
2023-05-11T16:35:19.324Z,98963.31
2023-05-11T16:37:48.006Z,98956.53
2023-05-11T16:40:19.198Z,98959.41
2023-05-11T16:42:47.608Z,98954.44
2023-05-11T16:45:16.571Z,98955.88
2023-05-11T16:47:45.571Z,98958.16
2023-05-11T16:50:16.601Z,98948.25
2023-05-11T16:52:43.677Z,98954.41
2023-05-11T16:55:11.929Z,98961.06
2023-05-11T16:57:38.836Z,98951.59
2023-05-11T17:00:07.022Z,98965.59
2023-05-11T17:02:34.088Z,98952.63
2023-05-11T17:05:02.075Z,98968.09
2023-05-11T17:07:28.958Z,98967.69
2023-05-11T17:09:57.321Z,98961.81
2023-05-11T17:12:24.408Z,98969.66
2023-05-11T17:14:51.705Z,98968.41
2023-05-11T17:17:18.557Z,98969.66
2023-05-11T17:19:45.692Z,98965.66
2023-05-11T17:34:28.021Z,98984.19
2023-05-11T17:36:56.026Z,98990.88
2023-05-11T17:39:23.179Z,98994.16
2023-05-11T17:41:50.189Z,98993.94
2023-05-11T17:44:17.437Z,98992.00
2023-05-11T17:46:44.390Z,98991.78
2023-05-11T17:49:11.669Z,98999.50
2023-05-11T17:51:38.609Z,99004.81
2023-05-11T17:54:05.833Z,99004.75
2023-05-11T17:56:32.897Z,99008.09
2023-05-11T17:59:00.130Z,99010.59
2023-05-11T18:01:27.764Z,99010.31
2023-05-11T18:03:55.192Z,99010.03
2023-05-11T18:06:22.199Z,99012.50
2023-05-11T18:08:49.460Z,99016.72
2023-05-11T18:11:16.475Z,99019.34
2023-05-11T18:13:43.644Z,99021.72
2023-05-11T18:16:10.460Z,99026.94
2023-05-11T18:18:37.901Z,99024.94
2023-05-11T18:21:06.264Z,99022.09
2023-05-11T18:23:33.812Z,99027.75
2023-05-11T18:26:00.823Z,99040.53
2023-05-11T18:28:28.308Z,99037.56
2023-05-11T18:30:55.618Z,99036.16
2023-05-11T18:33:23.127Z,99042.13
2023-05-11T18:35:53.270Z,99044.44
2023-05-11T18:38:20.537Z,99050.25
2023-05-11T18:40:47.819Z,99057.03
2023-05-11T18:43:15.062Z,99048.84
2023-05-11T18:45:43.147Z,99062.50
2023-05-11T18:48:10.350Z,99054.28
2023-05-11T18:50:37.323Z,99054.03
2023-05-11T18:53:04.499Z,99064.34
2023-05-11T18:55:38.136Z,99060.50
2023-05-11T18:58:12.835Z,99061.22
2023-05-11T19:00:40.594Z,99064.31
2023-05-11T19:03:08.259Z,99064.44
2023-05-11T19:05:35.137Z,99065.63
2023-05-11T19:08:02.311Z,99069.38
2023-05-11T19:10:29.172Z,99069.66
2023-05-11T19:12:56.451Z,99077.16
2023-05-11T19:15:23.276Z,99077.53
2023-05-11T19:17:50.534Z,99072.72
2023-05-11T19:20:17.858Z,99083.75
2023-05-11T19:22:45.117Z,99073.72
2023-05-11T19:25:12.017Z,99074.19
2023-05-11T19:27:39.862Z,99083.41
2023-05-11T19:30:09.508Z,99083.88
2023-05-11T19:32:36.838Z,99081.47
2023-05-11T19:35:04.631Z,99083.38
2023-05-11T19:37:31.948Z,99085.41
2023-05-11T19:40:11.492Z,99083.78
2023-05-11T19:42:46.121Z,99088.22
2023-05-11T19:45:15.002Z,99085.41
2023-05-11T19:47:42.171Z,99088.78
2023-05-11T19:50:09.347Z,99079.75
2023-05-11T19:52:36.807Z,99083.94
2023-05-11T19:55:04.404Z,99078.47
2023-05-11T19:57:37.141Z,99084.50
2023-05-11T20:00:06.310Z,99076.50
2023-05-11T20:02:33.730Z,99087.31
2023-05-11T20:05:00.703Z,99080.09
2023-05-11T20:07:28.016Z,99080.72
2023-05-11T20:09:55.122Z,99081.63
2023-05-11T20:12:22.370Z,99086.91
2023-05-11T20:14:49.462Z,99091.91
2023-05-11T20:17:16.625Z,99087.41
2023-05-11T20:19:43.458Z,99089.25
2023-05-11T20:22:10.663Z,99089.91
2023-05-11T20:24:37.625Z,99087.16
2023-05-11T20:27:09.544Z,99088.19
2023-05-11T20:29:38.891Z,99084.63
2023-05-11T20:32:06.856Z,99087.47
2023-05-11T20:34:33.876Z,99094.66
2023-05-11T20:37:01.130Z,99098.66
2023-05-11T20:39:28.427Z,99092.59
2023-05-11T20:41:58.849Z,99091.03
2023-05-11T20:44:26.294Z,99097.47
2023-05-11T20:46:53.485Z,99098.00
2023-05-11T20:49:37.580Z,99094.00
2023-05-11T20:52:06.781Z,99102.38
2023-05-11T20:54:36.780Z,99096.56
2023-05-11T20:57:04.494Z,99095.31
2023-05-11T21:02:02.594Z,99092.84
2023-05-11T21:04:31.331Z,99093.31
2023-05-11T21:06:58.560Z,99096.44
2023-05-11T21:09:25.630Z,99093.44
2023-05-11T21:11:52.887Z,99094.81
2023-05-11T21:14:20.346Z,99100.41
2023-05-11T21:16:48.000Z,99100.88
2023-05-11T21:19:18.584Z,99099.56
2023-05-11T21:21:48.615Z,99101.78
2023-05-11T21:24:16.263Z,99099.44
2023-05-11T21:26:43.949Z,99104.19
2023-05-11T21:29:13.158Z,99110.59
2023-05-11T21:31:40.355Z,99103.78
2023-05-11T21:34:07.179Z,99101.53
2023-05-11T21:36:34.401Z,99106.13
2023-05-11T21:39:01.329Z,99108.34
2023-05-11T21:41:28.487Z,99113.03
2023-05-11T21:43:55.383Z,99113.16
2023-05-11T21:46:22.623Z,99113.16
2023-05-11T21:48:49.495Z,99106.91
2023-05-11T21:51:16.685Z,99108.69
2023-05-11T21:53:43.513Z,99111.44
2023-05-11T21:56:10.668Z,99116.34
2023-05-11T21:58:37.877Z,99117.66
2023-05-11T22:01:05.030Z,99120.53
2023-05-11T22:03:32.290Z,99115.44
2023-05-11T22:05:59.564Z,99118.34
2023-05-11T22:08:26.585Z,99118.84
2023-05-11T22:10:53.828Z,99130.50
2023-05-11T22:13:21.709Z,99121.03
2023-05-11T22:15:48.853Z,99129.09
2023-05-11T22:18:15.834Z,99136.19
2023-05-11T22:20:43.358Z,99128.38
2023-05-11T22:23:10.189Z,99126.81
2023-05-11T22:25:37.290Z,99124.28
2023-05-11T22:28:04.970Z,99123.66
2023-05-11T22:30:32.169Z,99121.13
2023-05-11T22:32:59.119Z,99127.28
2023-05-11T22:35:26.625Z,99122.81
2023-05-11T22:37:54.303Z,99128.63
2023-05-11T22:40:21.588Z,99119.72
2023-05-11T22:42:48.534Z,99126.63
2023-05-11T22:45:16.511Z,99126.47
2023-05-11T22:47:43.566Z,99130.75
2023-05-11T22:50:12.220Z,99137.72
2023-05-11T22:52:39.507Z,99131.53
2023-05-11T22:55:07.200Z,99126.25
2023-05-11T22:57:34.138Z,99139.47
2023-05-11T23:00:01.294Z,99136.91
2023-05-11T23:02:29.805Z,99138.81
2023-05-11T23:04:57.735Z,99134.66
2023-05-11T23:07:24.571Z,99128.69
2023-05-11T23:09:52.972Z,99131.41
2023-05-11T23:12:20.043Z,99123.69
2023-05-11T23:14:47.456Z,99125.50
2023-05-11T23:19:41.858Z,99134.41
2023-05-11T23:22:08.866Z,99137.97
2023-05-11T23:24:36.198Z,99128.38
2023-05-11T23:27:03.509Z,99134.50
2023-05-11T23:29:30.721Z,99134.53
2023-05-11T23:31:57.594Z,99139.84
2023-05-11T23:34:24.726Z,99130.28
2023-05-11T23:36:51.745Z,99127.78
2023-05-11T23:39:19.226Z,99132.19
2023-05-11T23:42:01.610Z,99129.72
2023-05-11T23:44:28.807Z,99131.41
2023-05-11T23:46:55.737Z,99131.38
2023-05-11T23:49:23.016Z,99128.78
2023-05-11T23:51:49.937Z,99131.47
2023-05-11T23:54:17.118Z,99130.72
2023-05-11T23:56:44.694Z,99122.88
2023-05-11T23:59:11.832Z,99123.88
